createdAt,value
2019-05-16T00:01:09.408Z,69.99
2019-05-16T00:03:38.430Z,70.68
2019-05-16T00:06:04.660Z,70.55
2019-05-16T00:08:31.013Z,70.34
2019-05-16T00:10:58.188Z,70.40
2019-05-16T00:13:24.700Z,70.70
2019-05-16T00:15:52.910Z,69.65
2019-05-16T00:18:20.475Z,68.99
2019-05-16T00:20:49.101Z,68.93
2019-05-16T00:23:15.432Z,70.34
2019-05-16T00:25:42.117Z,71.18
2019-05-16T00:28:09.045Z,70.99
2019-05-16T00:30:35.518Z,71.20
2019-05-16T00:33:01.856Z,71.52
2019-05-16T00:35:28.699Z,70.77
2019-05-16T00:37:55.188Z,72.03
2019-05-16T00:40:21.565Z,72.32
2019-05-16T00:42:49.257Z,72.32
2019-05-16T00:45:18.333Z,73.52
2019-05-16T00:47:44.341Z,72.49
2019-05-16T00:50:11.115Z,72.62
2019-05-16T00:52:39.482Z,72.00
2019-05-16T00:55:08.288Z,71.66
2019-05-16T00:57:35.263Z,72.53
2019-05-16T01:00:01.977Z,72.52
2019-05-16T01:02:29.175Z,72.62
2019-05-16T01:04:56.273Z,72.68
2019-05-16T01:07:23.053Z,71.93
2019-05-16T01:09:49.585Z,72.27
2019-05-16T01:12:17.828Z,72.65
2019-05-16T01:14:44.419Z,72.28
2019-05-16T01:17:10.796Z,72.13
2019-05-16T01:19:37.977Z,73.21
2019-05-16T01:22:04.617Z,74.48
2019-05-16T01:24:31.076Z,74.82
2019-05-16T01:26:58.402Z,74.67
2019-05-16T01:29:24.760Z,74.47
2019-05-16T01:31:51.065Z,75.34
2019-05-16T01:34:18.096Z,75.87
2019-05-16T01:36:44.649Z,76.69
2019-05-16T01:39:10.974Z,77.37
2019-05-16T01:41:38.200Z,78.14
2019-05-16T01:44:04.716Z,77.51
2019-05-16T01:46:31.202Z,76.60
2019-05-16T01:48:57.845Z,76.32
2019-05-16T01:51:24.438Z,77.04
2019-05-16T01:53:50.796Z,77.06
2019-05-16T01:56:17.939Z,76.50
2019-05-16T01:58:44.671Z,76.79
2019-05-16T02:01:15.594Z,76.41
2019-05-16T02:03:39.374Z,75.98
2019-05-16T02:06:05.695Z,77.35
2019-05-16T02:08:32.062Z,77.67
2019-05-16T02:10:58.601Z,77.59
2019-05-16T02:13:25.039Z,77.57
2019-05-16T02:15:51.365Z,77.75
2019-05-16T02:18:18.471Z,77.76
2019-05-16T02:20:47.540Z,78.33
2019-05-16T02:23:13.603Z,78.36
2019-05-16T02:25:40.770Z,78.01
2019-05-16T02:28:08.764Z,77.52
2019-05-16T02:30:35.141Z,77.36
2019-05-16T02:33:01.562Z,76.56
2019-05-16T02:35:31.025Z,77.20
2019-05-16T02:38:00.692Z,76.41
2019-05-16T02:40:26.101Z,77.23
2019-05-16T02:42:56.028Z,77.22
2019-05-16T02:45:24.722Z,76.67
2019-05-16T02:47:51.360Z,76.52
2019-05-16T02:50:18.219Z,76.62
2019-05-16T02:52:45.211Z,77.80
2019-05-16T02:55:12.254Z,77.53
2019-05-16T02:57:41.425Z,76.89
2019-05-16T03:00:12.096Z,76.87
2019-05-16T03:02:41.580Z,75.44
2019-05-16T03:05:07.392Z,76.36
2019-05-16T03:07:41.591Z,76.31
2019-05-16T03:10:10.889Z,76.96
2019-05-16T03:12:36.866Z,76.65
2019-05-16T03:15:06.811Z,75.75
2019-05-16T03:17:33.519Z,76.14
2019-05-16T03:20:01.668Z,75.69
2019-05-16T03:22:31.698Z,75.34
2019-05-16T03:25:01.089Z,76.40
2019-05-16T03:27:26.764Z,75.72
2019-05-16T03:29:53.065Z,75.44
2019-05-16T03:32:24.415Z,75.69
2019-05-16T03:34:47.656Z,75.62
2019-05-16T03:37:14.965Z,76.43
2019-05-16T03:39:43.526Z,76.02
2019-05-16T03:42:12.473Z,76.72
2019-05-16T03:44:41.111Z,76.90
2019-05-16T03:47:06.667Z,76.26
2019-05-16T03:49:34.161Z,77.46
2019-05-16T03:52:01.487Z,76.81
2019-05-16T03:54:31.165Z,76.65
2019-05-16T03:56:56.407Z,76.51
2019-05-16T03:59:22.734Z,76.85
2019-05-16T04:01:51.055Z,77.25
2019-05-16T04:04:20.882Z,77.75
2019-05-16T04:06:46.442Z,77.84
2019-05-16T04:09:12.804Z,76.81
2019-05-16T04:11:42.127Z,77.05
2019-05-16T04:14:10.654Z,77.27
2019-05-16T04:16:36.098Z,76.96
2019-05-16T04:19:02.711Z,76.96
2019-05-16T04:21:32.245Z,76.93
2019-05-16T04:23:57.292Z,76.90
2019-05-16T04:26:23.641Z,77.39
2019-05-16T04:28:51.394Z,77.65
2019-05-16T04:31:22.046Z,77.41
2019-05-16T04:33:47.115Z,78.00
2019-05-16T04:36:13.640Z,77.79
2019-05-16T04:38:45.979Z,77.33
2019-05-16T04:41:11.293Z,76.07
2019-05-16T04:43:37.682Z,75.83
2019-05-16T04:46:04.107Z,74.86
2019-05-16T04:48:31.218Z,74.90
2019-05-16T04:51:01.008Z,75.28
2019-05-16T04:53:26.203Z,76.28
2019-05-16T04:55:52.650Z,76.48
2019-05-16T04:58:23.117Z,76.84
2019-05-16T05:00:51.233Z,76.22
2019-05-16T05:03:15.969Z,75.83
2019-05-16T05:05:42.320Z,76.78
2019-05-16T05:08:10.807Z,77.67
2019-05-16T05:10:36.907Z,76.82
2019-05-16T05:13:03.313Z,76.88
2019-05-16T05:15:30.636Z,76.88
2019-05-16T05:17:57.225Z,76.97
2019-05-16T05:20:23.577Z,76.41
2019-05-16T05:22:50.259Z,75.47
2019-05-16T05:25:20.390Z,74.38
2019-05-16T05:27:46.985Z,72.77
2019-05-16T05:30:13.630Z,71.95
2019-05-16T05:32:41.371Z,72.31
2019-05-16T05:35:10.616Z,73.60
2019-05-16T05:37:40.715Z,73.50
2019-05-16T05:40:05.749Z,73.95
2019-05-16T05:42:34.334Z,75.60
2019-05-16T05:45:00.673Z,73.89
2019-05-16T05:47:27.017Z,73.88
2019-05-16T05:49:53.329Z,72.33
2019-05-16T05:52:20.964Z,71.75
2019-05-16T05:54:47.519Z,72.03
2019-05-16T05:57:14.268Z,72.46
2019-05-16T05:59:40.982Z,74.05
2019-05-16T06:02:11.279Z,73.35
2019-05-16T06:04:39.538Z,73.35
2019-05-16T06:07:06.166Z,73.72
2019-05-16T06:09:33.262Z,73.07
2019-05-16T06:12:00.802Z,74.76
2019-05-16T06:14:27.321Z,76.83
2019-05-16T06:16:53.671Z,75.85
2019-05-16T06:19:20.424Z,75.10
2019-05-16T06:21:47.055Z,74.56
2019-05-16T06:24:16.088Z,73.09
2019-05-16T06:26:41.797Z,73.51
2019-05-16T06:29:10.465Z,73.27
2019-05-16T06:31:37.176Z,73.99
2019-05-16T06:34:08.443Z,73.95
2019-05-16T06:36:32.120Z,73.11
2019-05-16T06:39:00.206Z,74.33
2019-05-16T06:41:26.811Z,74.27
2019-05-16T06:43:53.213Z,73.39
2019-05-16T06:46:20.143Z,72.54
2019-05-16T06:48:47.804Z,72.87
2019-05-16T06:51:14.360Z,74.03
2019-05-16T06:53:41.133Z,73.70
2019-05-16T06:56:07.473Z,72.50
2019-05-16T06:58:44.786Z,72.74
2019-05-16T07:01:03.676Z,72.15
2019-05-16T07:03:31.027Z,70.68
2019-05-16T07:05:57.672Z,69.58
2019-05-16T07:08:24.084Z,69.15
2019-05-16T07:10:51.400Z,67.53
2019-05-16T07:13:19.694Z,68.59
2019-05-16T07:15:46.129Z,70.24
2019-05-16T07:18:13.199Z,70.38
2019-05-16T07:20:40.100Z,70.51
2019-05-16T07:23:09.932Z,70.24
2019-05-16T07:25:35.816Z,68.99
2019-05-16T07:28:02.148Z,69.40
2019-05-16T07:30:30.336Z,68.51
2019-05-16T07:32:56.873Z,68.42
2019-05-16T07:35:23.204Z,69.98
2019-05-16T07:37:50.111Z,70.76
2019-05-16T07:40:25.740Z,70.00
2019-05-16T07:42:45.221Z,69.52
2019-05-16T07:45:13.014Z,67.28
2019-05-16T07:47:40.498Z,66.16
2019-05-16T07:50:07.461Z,66.70
2019-05-16T07:52:36.504Z,65.89
2019-05-16T07:55:04.067Z,65.09
2019-05-16T07:57:30.740Z,65.35
2019-05-16T07:59:57.244Z,65.86
2019-05-16T08:02:23.546Z,65.40
2019-05-16T08:04:52.355Z,66.07
2019-05-16T08:07:20.081Z,66.41
2019-05-16T08:09:47.024Z,66.33
2019-05-16T08:14:50.613Z,65.84
2019-05-16T08:17:16.951Z,66.77
2019-05-16T08:19:43.299Z,67.38
2019-05-16T08:22:10.950Z,66.60
2019-05-16T08:24:40.183Z,68.48
2019-05-16T08:27:07.571Z,69.08
2019-05-16T08:29:33.954Z,67.80
2019-05-16T08:32:02.074Z,67.28
2019-05-16T08:34:32.013Z,65.63
2019-05-16T08:36:57.074Z,65.01
2019-05-16T08:39:23.398Z,63.80
2019-05-16T08:41:51.885Z,63.39
2019-05-16T08:44:21.295Z,62.74
2019-05-16T08:46:53.171Z,62.04
2019-05-16T08:49:14.766Z,62.33
2019-05-16T08:50:11.175Z,65.90
2019-05-16T08:51:42.653Z,62.80
2019-05-16T08:54:13.318Z,61.65
2019-05-16T08:56:44.221Z,60.50
2019-05-16T08:59:07.915Z,59.37
2019-05-16T09:01:35.234Z,61.35
2019-05-16T09:04:02.759Z,61.52
2019-05-16T09:06:32.057Z,62.31
2019-05-16T09:09:02.879Z,62.50
2019-05-16T09:11:35.641Z,63.70
2019-05-16T09:13:57.126Z,62.31
2019-05-16T09:16:23.502Z,63.36
2019-05-16T09:18:51.043Z,63.19
2019-05-16T09:21:18.374Z,63.42
2019-05-16T09:23:46.990Z,63.02
2019-05-16T09:26:15.970Z,61.35
2019-05-16T09:28:41.850Z,62.43
2019-05-16T09:31:08.413Z,61.34
2019-05-16T09:33:37.376Z,60.70
2019-05-16T09:36:03.181Z,60.77
2019-05-16T09:38:29.531Z,59.75
2019-05-16T09:40:57.045Z,60.83
2019-05-16T09:43:28.117Z,60.44
2019-05-16T09:46:02.676Z,61.72
2019-05-16T09:48:22.999Z,63.17
2019-05-16T09:50:49.845Z,63.38
2019-05-16T09:53:17.277Z,63.34
2019-05-16T09:55:46.781Z,63.03
2019-05-16T09:58:12.978Z,61.09
2019-05-16T10:00:40.162Z,58.30
2019-05-16T10:03:07.244Z,58.51
2019-05-16T10:05:33.774Z,59.72
2019-05-16T10:08:00.125Z,58.82
2019-05-16T10:10:26.525Z,60.00
2019-05-16T10:12:52.938Z,60.67
2019-05-16T10:15:19.649Z,59.31
2019-05-16T10:17:47.626Z,58.89
2019-05-16T10:20:16.891Z,57.10
2019-05-16T10:22:43.392Z,55.42
2019-05-16T10:25:09.929Z,55.14
2019-05-16T10:27:36.852Z,54.21
2019-05-16T10:30:08.422Z,56.14
2019-05-16T10:32:36.473Z,57.21
2019-05-16T10:35:04.799Z,58.46
2019-05-16T10:37:31.388Z,57.11
2019-05-16T10:39:59.910Z,55.92
2019-05-16T10:42:29.021Z,53.73
2019-05-16T10:44:54.245Z,53.39
2019-05-16T10:47:20.598Z,53.68
2019-05-16T10:49:47.707Z,54.61
2019-05-16T10:52:16.529Z,53.82
2019-05-16T10:55:03.932Z,53.81
2019-05-16T10:57:12.144Z,53.40
2019-05-16T10:59:57.808Z,55.87
2019-05-16T11:02:07.547Z,57.29
2019-05-16T11:04:52.873Z,57.30
2019-05-16T11:07:02.347Z,55.45
2019-05-16T11:09:28.684Z,55.54
2019-05-16T11:11:57.080Z,58.81
2019-05-16T11:14:23.296Z,59.94
2019-05-16T11:16:49.689Z,62.10
2019-05-16T11:19:21.368Z,62.01
2019-05-16T11:21:46.712Z,61.99
2019-05-16T11:24:13.537Z,61.42
2019-05-16T11:26:40.648Z,61.77
2019-05-16T11:29:07.562Z,61.64
2019-05-16T11:31:34.038Z,60.58
2019-05-16T11:34:00.429Z,57.45
2019-05-16T11:36:26.992Z,57.90
2019-05-16T11:38:57.539Z,56.79
2019-05-16T11:41:21.649Z,56.68
2019-05-16T11:43:48.358Z,57.67
2019-05-16T11:46:15.116Z,59.49
2019-05-16T11:48:41.833Z,59.79
2019-05-16T11:51:08.161Z,59.18
2019-05-16T11:53:34.510Z,58.59
2019-05-16T11:56:02.011Z,59.11
2019-05-16T11:58:28.696Z,58.84
2019-05-16T12:00:57.397Z,57.78
2019-05-16T12:03:23.306Z,57.46
2019-05-16T12:05:49.602Z,56.90
2019-05-16T12:08:17.423Z,56.68
2019-05-16T12:10:44.124Z,57.61
2019-05-16T12:13:24.167Z,57.50
2019-05-16T12:15:38.972Z,57.29
2019-05-16T12:18:08.352Z,57.19
2019-05-16T12:20:33.584Z,56.19
2019-05-16T12:23:00.313Z,55.52
2019-05-16T12:25:27.354Z,55.84
2019-05-16T12:27:56.748Z,56.22
2019-05-16T12:30:22.546Z,54.65
2019-05-16T12:32:48.922Z,54.14
2019-05-16T12:35:18.089Z,53.19
2019-05-16T12:37:44.543Z,52.29
2019-05-16T12:40:10.987Z,52.00
2019-05-16T12:42:37.408Z,52.17
2019-05-16T12:45:08.072Z,52.99
2019-05-16T12:47:37.289Z,53.49
2019-05-16T12:50:13.493Z,53.53
2019-05-16T12:52:40.390Z,53.04
2019-05-16T12:55:07.876Z,53.08
2019-05-16T12:57:38.008Z,53.12
2019-05-16T13:00:07.226Z,52.13
2019-05-16T13:02:33.856Z,51.95
2019-05-16T13:05:00.186Z,51.58
2019-05-16T13:07:26.982Z,51.74
2019-05-16T13:09:55.009Z,51.58
2019-05-16T13:12:21.394Z,51.92
2019-05-16T13:14:47.767Z,51.62
2019-05-16T13:17:16.542Z,51.97
2019-05-16T13:19:44.463Z,51.47
2019-05-16T13:22:10.682Z,52.08
2019-05-16T13:24:38.469Z,52.00
2019-05-16T13:27:08.220Z,53.54
2019-05-16T13:29:33.436Z,54.00
2019-05-16T13:31:59.746Z,54.37
2019-05-16T13:34:28.090Z,55.13
2019-05-16T13:36:54.394Z,54.72
2019-05-16T13:39:20.897Z,55.87
2019-05-16T13:41:47.242Z,56.42
2019-05-16T13:44:19.922Z,55.75
2019-05-16T13:46:42.748Z,55.95
2019-05-16T13:49:09.177Z,56.40
2019-05-16T13:51:37.319Z,55.48
2019-05-16T13:54:04.038Z,54.45
2019-05-16T13:56:30.400Z,53.73
2019-05-16T13:58:57.072Z,53.36
2019-05-16T14:01:23.540Z,54.42
2019-05-16T14:03:49.879Z,54.26
2019-05-16T14:06:18.323Z,54.42
2019-05-16T14:08:46.746Z,53.85
2019-05-16T14:11:13.344Z,53.17
2019-05-16T14:13:39.776Z,51.62
2019-05-16T14:16:07.271Z,52.22
2019-05-16T14:18:33.903Z,52.00
2019-05-16T14:21:00.346Z,52.64
2019-05-16T14:23:28.302Z,51.93
2019-05-16T14:25:57.622Z,51.96
2019-05-16T14:28:23.187Z,51.20
2019-05-16T14:30:49.544Z,50.94
2019-05-16T14:33:17.224Z,51.26
2019-05-16T14:35:43.776Z,49.80
2019-05-16T14:38:10.113Z,50.12
2019-05-16T14:40:37.359Z,51.14
2019-05-16T14:43:07.820Z,49.89
2019-05-16T14:45:32.547Z,49.96
2019-05-16T14:47:58.911Z,50.93
2019-05-16T14:50:27.572Z,52.18
2019-05-16T14:52:56.542Z,51.57
2019-05-16T14:55:22.269Z,51.99
2019-05-16T14:57:48.604Z,51.22
2019-05-16T15:00:18.518Z,50.11
2019-05-16T15:02:47.949Z,50.75
2019-05-16T15:05:13.888Z,51.14
2019-05-16T15:07:40.200Z,49.61
2019-05-16T15:10:07.508Z,50.82
2019-05-16T15:12:34.277Z,50.99
2019-05-16T15:15:16.011Z,51.47
2019-05-16T15:17:30.083Z,51.80
2019-05-16T15:19:57.148Z,51.31
2019-05-16T15:22:23.734Z,51.32
2019-05-16T15:24:50.070Z,51.17
2019-05-16T15:27:17.045Z,49.83
2019-05-16T15:29:43.579Z,49.83
2019-05-16T15:32:10.015Z,50.23
2019-05-16T15:34:38.116Z,50.59
2019-05-16T15:37:07.568Z,51.78
2019-05-16T15:39:32.801Z,52.85
2019-05-16T15:41:59.131Z,52.65
2019-05-16T15:44:27.302Z,52.29
2019-05-16T15:46:53.656Z,52.92
2019-05-16T15:49:20.007Z,53.79
2019-05-16T15:51:46.455Z,54.21
2019-05-16T15:54:20.449Z,54.98
2019-05-16T15:56:49.326Z,55.40
2019-05-16T15:59:17.954Z,55.48
2019-05-16T16:01:47.179Z,54.74
2019-05-16T16:04:12.738Z,55.59
2019-05-16T16:06:42.953Z,55.85
2019-05-16T16:09:08.085Z,55.88
2019-05-16T16:11:37.278Z,56.43
2019-05-16T16:14:03.482Z,56.52
2019-05-16T16:16:29.979Z,56.72
2019-05-16T16:18:57.446Z,57.04
2019-05-16T16:21:24.071Z,57.16
2019-05-16T16:23:50.429Z,55.70
2019-05-16T16:26:17.994Z,55.68
2019-05-16T16:28:44.476Z,56.28
2019-05-16T16:31:10.915Z,55.58
2019-05-16T16:33:37.673Z,55.62
2019-05-16T16:36:04.186Z,54.75
2019-05-16T16:38:30.582Z,55.48
2019-05-16T16:40:57.522Z,55.21
2019-05-16T16:43:24.405Z,56.47
2019-05-16T16:46:04.477Z,56.40
2019-05-16T16:48:19.258Z,56.26
2019-05-16T16:50:45.889Z,56.49
2019-05-16T16:53:12.227Z,55.79
2019-05-16T16:55:38.552Z,56.08
2019-05-16T16:58:04.884Z,56.40
2019-05-16T17:00:31.210Z,56.67
2019-05-16T17:03:05.629Z,56.92
2019-05-16T17:05:26.659Z,56.63
2019-05-16T17:07:53.088Z,56.96
2019-05-16T17:10:19.857Z,56.32
2019-05-16T17:12:47.143Z,56.39
2019-05-16T17:15:14.132Z,56.05
2019-05-16T17:17:40.461Z,55.58
2019-05-16T17:20:09.165Z,56.02
2019-05-16T17:22:37.345Z,57.03
2019-05-16T17:25:07.362Z,57.60
2019-05-16T17:27:34.126Z,57.69
2019-05-16T17:30:00.947Z,57.71
2019-05-16T17:32:27.579Z,58.14
2019-05-16T17:34:53.883Z,57.58
2019-05-16T17:37:20.334Z,57.76
2019-05-16T17:39:47.476Z,57.80
2019-05-16T17:45:13.741Z,58.90
2019-05-16T17:47:41.483Z,59.01
2019-05-16T17:50:08.827Z,57.66
2019-05-16T17:52:36.887Z,57.19
2019-05-16T17:55:07.391Z,57.59
2019-05-16T17:57:37.097Z,58.08
2019-05-16T18:00:12.713Z,58.64
2019-05-16T18:02:38.156Z,58.84
2019-05-16T18:05:07.716Z,58.92
2019-05-16T18:07:36.388Z,58.64
2019-05-16T18:10:07.442Z,58.48
2019-05-16T18:12:37.001Z,58.61
2019-05-16T18:15:08.383Z,59.79
2019-05-16T18:17:36.204Z,60.28
2019-05-16T18:20:07.307Z,59.96
2019-05-16T18:22:36.565Z,59.39
2019-05-16T18:25:07.131Z,59.26
2019-05-16T18:27:33.502Z,59.78
2019-05-16T18:30:00.134Z,60.18
2019-05-16T18:32:26.880Z,60.47
2019-05-16T18:34:53.245Z,61.52
2019-05-16T18:37:19.620Z,61.89
2019-05-16T18:39:47.383Z,61.88
2019-05-16T18:42:17.277Z,61.49
2019-05-16T18:44:43.685Z,61.95
2019-05-16T18:47:11.576Z,62.48
2019-05-16T18:49:38.182Z,62.93
2019-05-16T18:52:06.571Z,63.81
2019-05-16T18:54:32.955Z,64.01
2019-05-16T18:56:59.373Z,64.43
2019-05-16T18:59:26.175Z,64.30
2019-05-16T19:01:52.661Z,64.71
2019-05-16T19:04:18.993Z,64.65
2019-05-16T19:06:45.351Z,64.27
2019-05-16T19:09:11.828Z,64.04
2019-05-16T19:11:38.499Z,64.13
2019-05-16T19:14:07.392Z,64.87
2019-05-16T19:16:33.627Z,64.06
2019-05-16T19:18:59.957Z,64.37
2019-05-16T19:21:26.484Z,64.40
2019-05-16T19:23:53.122Z,64.53
2019-05-16T19:26:20.970Z,63.81
2019-05-16T19:28:48.610Z,63.59
2019-05-16T19:31:17.177Z,63.99
2019-05-16T19:33:43.944Z,64.30
2019-05-16T19:36:10.675Z,64.96
2019-05-16T19:38:39.922Z,64.59
2019-05-16T19:41:08.062Z,65.02
2019-05-16T19:43:37.029Z,65.46
2019-05-16T19:46:03.508Z,66.25
2019-05-16T19:48:29.885Z,66.50
2019-05-16T19:50:56.866Z,67.01
2019-05-16T19:53:24.284Z,67.89
2019-05-16T19:55:56.866Z,68.00
2019-05-16T19:58:23.326Z,67.75
2019-05-16T20:00:49.658Z,68.16
2019-05-16T20:03:19.368Z,68.01
2019-05-16T20:05:47.621Z,68.64
2019-05-16T20:08:13.915Z,68.53
2019-05-16T20:10:40.420Z,68.26
2019-05-16T20:13:07.803Z,68.17
2019-05-16T20:15:36.648Z,68.95
2019-05-16T20:18:04.306Z,69.03
2019-05-16T20:20:30.650Z,69.37
2019-05-16T20:22:56.964Z,69.66
2019-05-16T20:25:26.717Z,69.73
2019-05-16T20:27:52.682Z,69.69
2019-05-16T20:30:20.315Z,69.93
2019-05-16T20:32:47.065Z,70.20
2019-05-16T20:35:13.490Z,70.38
2019-05-16T20:37:40.137Z,70.70
2019-05-16T20:40:09.226Z,71.17
2019-05-16T20:42:36.742Z,71.32
2019-05-16T20:45:08.021Z,71.44
2019-05-16T20:47:34.485Z,71.03
2019-05-16T20:50:01.044Z,71.15
2019-05-16T20:52:27.350Z,70.75
2019-05-16T20:54:53.703Z,70.91
2019-05-16T20:57:20.164Z,70.81
2019-05-16T20:59:49.096Z,69.93
2019-05-16T21:02:16.359Z,69.54
2019-05-16T21:04:43.178Z,69.23
2019-05-16T21:07:11.353Z,68.80
2019-05-16T21:09:37.935Z,68.54
2019-05-16T21:12:08.296Z,68.71
2019-05-16T21:14:35.964Z,69.31
2019-05-16T21:17:02.279Z,70.46
2019-05-16T21:19:28.586Z,71.49
2019-05-16T21:21:56.590Z,72.04
2019-05-16T21:24:23.199Z,72.69
2019-05-16T21:26:49.535Z,72.25
2019-05-16T21:29:16.469Z,72.44
2019-05-16T21:31:44.090Z,72.79
2019-05-16T21:34:10.424Z,72.64
2019-05-16T21:36:36.859Z,72.11
2019-05-16T21:39:08.123Z,72.77
2019-05-16T21:41:33.501Z,72.68
2019-05-16T21:44:00.164Z,73.33
2019-05-16T21:46:27.185Z,73.76
2019-05-16T21:48:54.055Z,74.18
2019-05-16T21:51:20.391Z,73.99
2019-05-16T21:53:47.196Z,73.62
2019-05-16T21:56:13.868Z,73.42
2019-05-16T21:58:40.502Z,73.43
2019-05-16T22:01:12.599Z,73.08
2019-05-16T22:03:40.900Z,72.20
2019-05-16T22:06:08.123Z,72.48
2019-05-16T22:08:36.510Z,72.19
2019-05-16T22:11:06.712Z,71.95
2019-05-16T22:13:37.099Z,72.71
2019-05-16T22:16:05.628Z,72.96
2019-05-16T22:18:33.208Z,71.69
2019-05-16T22:20:59.560Z,72.04
2019-05-16T22:23:26.685Z,72.18
2019-05-16T22:25:53.196Z,72.29
2019-05-16T22:28:19.560Z,72.91
2019-05-16T22:30:47.131Z,73.24
2019-05-16T22:33:13.941Z,73.43
2019-05-16T22:35:40.667Z,73.21
2019-05-16T22:38:07.253Z,72.95
2019-05-16T22:40:33.640Z,72.76
2019-05-16T22:43:00.263Z,72.87
2019-05-16T22:45:27.113Z,73.73
2019-05-16T22:47:54.767Z,73.76
2019-05-16T22:50:21.122Z,73.74
2019-05-16T22:52:47.445Z,73.81
2019-05-16T22:55:16.824Z,74.03
2019-05-16T22:57:43.066Z,74.54
2019-05-16T23:00:12.081Z,75.11
2019-05-16T23:02:40.333Z,75.41
2019-05-16T23:05:07.350Z,75.73
2019-05-16T23:07:36.509Z,76.09
2019-05-16T23:10:02.939Z,76.58
2019-05-16T23:12:29.374Z,76.99
2019-05-16T23:14:56.913Z,77.42
2019-05-16T23:17:23.508Z,77.29
2019-05-16T23:19:49.838Z,77.39
2019-05-16T23:22:16.745Z,77.27
2019-05-16T23:24:43.627Z,77.10
2019-05-16T23:27:09.959Z,76.69
2019-05-16T23:29:36.787Z,76.31
2019-05-16T23:32:03.337Z,76.38
2019-05-16T23:34:30.043Z,76.36
2019-05-16T23:36:57.042Z,75.82
2019-05-16T23:39:23.521Z,75.48
2019-05-16T23:41:49.842Z,75.28
2019-05-16T23:44:16.626Z,75.07
2019-05-16T23:46:43.090Z,74.88
2019-05-16T23:49:09.533Z,75.52
2019-05-16T23:51:36.771Z,75.85
2019-05-16T23:54:03.403Z,76.41
2019-05-16T23:56:29.719Z,76.56
2019-05-16T23:58:56.979Z,76.25
